createdAt,value
2022-09-10T00:02:21.041Z,15.76
2022-09-10T00:07:23.976Z,15.76
2022-09-10T00:12:28.380Z,15.76
2022-09-10T00:17:31.731Z,15.77
2022-09-10T00:22:34.775Z,15.77
2022-09-10T00:27:40.647Z,15.78
2022-09-10T00:32:43.927Z,15.76
2022-09-10T00:37:47.008Z,15.77
2022-09-10T00:42:51.522Z,15.79
2022-09-10T00:47:58.258Z,15.73
2022-09-10T00:53:06.083Z,15.71
2022-09-10T00:58:13.253Z,15.68
2022-09-10T01:03:21.454Z,15.68
2022-09-10T01:08:28.697Z,15.66
2022-09-10T01:13:44.286Z,15.63
2022-09-10T01:18:55.104Z,15.65
2022-09-10T01:24:30.904Z,15.66
2022-09-10T01:29:40.859Z,15.64
2022-09-10T01:34:48.744Z,15.69
2022-09-10T01:39:54.069Z,15.68
2022-09-10T01:44:59.926Z,15.68
2022-09-10T01:50:19.252Z,15.67
2022-09-10T01:55:34.199Z,15.68
2022-09-10T02:00:46.540Z,15.67
2022-09-10T02:05:54.299Z,15.69
2022-09-10T02:10:59.881Z,15.72
2022-09-10T02:16:12.435Z,15.73
2022-09-10T02:21:19.251Z,15.70
2022-09-10T02:26:22.218Z,15.72
2022-09-10T02:31:27.167Z,15.74
2022-09-10T02:36:31.922Z,15.71
2022-09-10T02:41:36.002Z,15.73
2022-09-10T02:46:40.953Z,15.73
2022-09-10T02:51:44.753Z,15.73
2022-09-10T02:56:48.482Z,15.73
2022-09-10T03:01:54.635Z,15.73
2022-09-10T03:06:58.801Z,15.75
2022-09-10T03:12:02.321Z,15.74
2022-09-10T03:17:10.778Z,15.75
2022-09-10T03:22:13.885Z,15.74
2022-09-10T03:27:18.102Z,15.70
2022-09-10T03:32:22.596Z,15.77
2022-09-10T03:37:25.970Z,15.76
2022-09-10T03:42:29.002Z,15.71
2022-09-10T03:47:33.339Z,15.69
2022-09-10T03:52:37.977Z,15.72
2022-09-10T03:57:41.849Z,15.75
2022-09-10T04:02:47.039Z,15.77
2022-09-10T04:07:50.721Z,15.77
2022-09-10T04:12:55.268Z,15.80
2022-09-10T04:17:59.981Z,15.85
2022-09-10T04:23:03.280Z,15.85
2022-09-10T04:28:09.701Z,15.86
2022-09-10T04:33:14.224Z,15.85
2022-09-10T04:38:18.272Z,15.84
2022-09-10T04:43:22.365Z,15.87
2022-09-10T04:48:27.193Z,15.82
2022-09-10T04:53:34.459Z,15.88
2022-09-10T04:58:41.254Z,15.86
2022-09-10T05:03:46.287Z,15.87
2022-09-10T05:08:50.756Z,15.89
2022-09-10T05:13:55.281Z,15.90
2022-09-10T05:19:03.185Z,15.90
2022-09-10T05:24:11.733Z,15.91
2022-09-10T05:29:15.142Z,15.93
2022-09-10T05:34:20.451Z,15.93
2022-09-10T05:39:23.535Z,15.96
2022-09-10T05:44:26.844Z,16.00
2022-09-10T05:49:31.317Z,16.00
2022-09-10T05:54:36.149Z,16.00
2022-09-10T05:59:39.892Z,16.01
2022-09-10T06:04:45.642Z,16.04
2022-09-10T06:09:49.658Z,16.13
2022-09-10T06:15:10.354Z,16.12
2022-09-10T06:20:14.750Z,16.13
2022-09-10T06:25:19.937Z,16.15
2022-09-10T06:30:23.111Z,16.22
2022-09-10T06:35:29.478Z,16.25
2022-09-10T06:40:33.729Z,16.41
2022-09-10T06:45:40.513Z,16.46
2022-09-10T06:51:05.247Z,16.50
2022-09-10T06:56:12.777Z,16.58
2022-09-10T07:01:18.481Z,16.68
2022-09-10T07:06:29.137Z,16.84
2022-09-10T07:11:42.431Z,17.06
2022-09-10T07:16:50.498Z,17.28
2022-09-10T07:21:57.225Z,17.35
2022-09-10T07:27:00.528Z,17.41
2022-09-10T07:32:04.570Z,17.52
2022-09-10T07:37:11.664Z,17.71
2022-09-10T07:42:16.105Z,17.88
2022-09-10T07:47:21.040Z,18.08
2022-09-10T07:52:26.575Z,18.37
2022-09-10T07:57:31.505Z,18.46
2022-09-10T08:02:35.780Z,18.50
2022-09-10T08:07:42.369Z,18.58
2022-09-10T08:12:45.367Z,18.74
2022-09-10T08:17:49.087Z,18.76
2022-09-10T08:22:57.344Z,18.81
2022-09-10T08:28:02.167Z,18.86
2022-09-10T08:33:06.995Z,18.95
2022-09-10T08:38:12.902Z,19.01
2022-09-10T08:43:17.130Z,19.18
2022-09-10T08:48:24.115Z,19.33
2022-09-10T08:53:41.999Z,19.58
2022-09-10T08:58:50.279Z,19.60
2022-09-10T09:03:57.806Z,19.69
2022-09-10T09:09:05.204Z,19.81
2022-09-10T09:14:25.777Z,19.62
2022-09-10T09:19:34.317Z,19.56
2022-09-10T09:24:53.089Z,19.34
2022-09-10T09:30:02.789Z,18.52
2022-09-10T09:35:23.802Z,18.15
2022-09-10T09:40:36.841Z,17.97
2022-09-10T09:45:43.819Z,17.91
2022-09-10T09:50:53.434Z,17.86
2022-09-10T09:56:00.212Z,17.74
2022-09-10T10:01:29.002Z,17.72
2022-09-10T10:06:34.794Z,17.74
2022-09-10T10:11:49.912Z,17.76
2022-09-10T10:17:00.456Z,17.87
2022-09-10T10:22:25.969Z,17.96
2022-09-10T10:27:33.409Z,18.29
2022-09-10T10:32:47.419Z,18.56
2022-09-10T10:38:07.083Z,18.71
2022-09-10T10:43:27.068Z,18.89
2022-09-10T10:48:44.690Z,19.19
2022-09-10T10:54:04.438Z,18.61
2022-09-10T10:59:29.997Z,18.48
2022-09-10T11:04:39.629Z,18.71
2022-09-10T11:09:49.451Z,19.60
2022-09-10T11:14:59.456Z,20.49
2022-09-10T11:20:27.934Z,20.25
2022-09-10T11:25:36.215Z,20.16
2022-09-10T11:30:43.896Z,20.20
2022-09-10T11:35:52.226Z,20.28
2022-09-10T11:41:07.956Z,20.45
2022-09-10T11:46:16.611Z,20.54
2022-09-10T11:51:25.825Z,20.25
2022-09-10T11:56:44.105Z,21.10
2022-09-10T12:02:03.612Z,21.37
2022-09-10T12:07:26.380Z,21.18
2022-09-10T12:12:35.046Z,20.69
2022-09-10T12:17:45.451Z,20.45
2022-09-10T12:22:54.997Z,20.57
2022-09-10T12:27:59.390Z,21.06
2022-09-10T12:33:30.337Z,21.55
2022-09-10T12:39:16.618Z,21.91
2022-09-10T12:44:47.244Z,21.51
2022-09-10T12:49:54.775Z,21.57
2022-09-10T12:55:08.972Z,21.98
2022-09-10T13:00:22.105Z,22.44
2022-09-10T13:05:33.231Z,22.25
2022-09-10T13:10:37.079Z,22.03
2022-09-10T13:15:52.446Z,22.32
2022-09-10T13:20:58.675Z,21.84
2022-09-10T13:26:52.523Z,21.58
2022-09-10T13:32:01.987Z,22.03
2022-09-10T13:37:24.944Z,22.32
2022-09-10T13:42:42.389Z,22.68
2022-09-10T13:47:49.632Z,22.98
2022-09-10T13:52:56.962Z,23.20
2022-09-10T13:58:06.037Z,22.89
2022-09-10T14:03:16.067Z,22.60
2022-09-10T14:08:25.682Z,22.55
2022-09-10T14:13:38.210Z,22.24
2022-09-10T14:18:46.078Z,22.35
2022-09-10T14:23:50.639Z,22.11
2022-09-10T14:28:56.077Z,22.05
2022-09-10T14:34:00.433Z,22.16
2022-09-10T14:39:09.294Z,22.17
2022-09-10T14:44:29.754Z,21.94
2022-09-10T14:49:34.785Z,21.77
2022-09-10T14:54:39.098Z,21.61
2022-09-10T14:59:43.756Z,21.46
2022-09-10T15:04:46.994Z,21.35
2022-09-10T15:09:54.103Z,21.38
2022-09-10T15:14:58.688Z,21.57
2022-09-10T15:20:03.850Z,21.57
2022-09-10T15:25:12.798Z,21.36
2022-09-10T15:30:16.202Z,21.23
2022-09-10T15:35:19.140Z,21.08
2022-09-10T15:40:24.104Z,20.99
2022-09-10T15:45:27.221Z,21.03
2022-09-10T15:50:31.572Z,21.06
2022-09-10T15:55:40.845Z,21.41
2022-09-10T16:00:43.822Z,21.57
2022-09-10T16:05:46.809Z,21.49
2022-09-10T16:10:53.160Z,21.28
2022-09-10T16:16:01.543Z,21.18
2022-09-10T16:21:11.522Z,21.10
2022-09-10T16:26:18.186Z,21.08
2022-09-10T16:31:23.578Z,21.07
2022-09-10T16:36:27.166Z,21.03
2022-09-10T16:41:32.050Z,20.94
2022-09-10T16:46:36.224Z,20.99
2022-09-10T16:51:40.338Z,20.96
2022-09-10T16:56:46.521Z,20.88
2022-09-10T17:01:51.879Z,20.90
2022-09-10T17:06:55.423Z,20.85
2022-09-10T17:12:00.616Z,20.69
2022-09-10T17:17:03.573Z,20.39
2022-09-10T17:22:08.450Z,20.21
2022-09-10T17:27:12.742Z,20.10
2022-09-10T17:32:15.651Z,20.01
2022-09-10T17:37:19.764Z,20.05
2022-09-10T17:42:24.141Z,20.04
2022-09-10T17:47:27.264Z,20.03
2022-09-10T17:52:30.281Z,20.00
2022-09-10T17:57:35.708Z,20.03
2022-09-10T18:02:41.374Z,19.94
2022-09-10T18:07:45.797Z,19.82
2022-09-10T18:12:50.313Z,19.78
2022-09-10T18:17:54.227Z,19.71
2022-09-10T18:22:59.205Z,19.59
2022-09-10T18:28:06.767Z,19.48
2022-09-10T18:33:11.782Z,19.43
2022-09-10T18:38:14.742Z,19.43
2022-09-10T18:43:20.096Z,19.29
2022-09-10T18:48:23.535Z,19.17
2022-09-10T18:53:26.547Z,19.06
2022-09-10T18:58:32.245Z,18.96
2022-09-10T19:03:38.300Z,18.84
2022-09-10T19:08:47.685Z,18.74
2022-09-10T19:13:54.003Z,18.69
2022-09-10T19:18:59.234Z,18.57
2022-09-10T19:24:02.786Z,18.44
2022-09-10T19:29:07.094Z,18.37
2022-09-10T19:34:15.413Z,18.29
2022-09-10T19:39:19.167Z,18.16
2022-09-10T19:44:24.227Z,18.08
2022-09-10T19:49:27.361Z,18.02
2022-09-10T19:54:30.666Z,17.92
2022-09-10T19:59:35.663Z,17.85
2022-09-10T20:04:39.931Z,17.79
2022-09-10T20:09:43.034Z,17.69
2022-09-10T20:14:47.373Z,17.65
2022-09-10T20:19:50.521Z,17.57
2022-09-10T20:24:53.437Z,17.51
2022-09-10T20:29:57.862Z,17.45
2022-09-10T20:35:01.908Z,17.42
2022-09-10T20:40:05.292Z,17.35
2022-09-10T20:45:11.883Z,17.29
2022-09-10T20:50:15.187Z,17.20
2022-09-10T20:55:18.557Z,17.16
2022-09-10T21:00:22.966Z,17.11
2022-09-10T21:05:26.131Z,17.06
2022-09-10T21:10:29.144Z,17.04
2022-09-10T21:15:33.556Z,17.02
2022-09-10T21:20:36.853Z,17.03
2022-09-10T21:25:52.118Z,17.00
2022-09-10T21:30:56.862Z,16.93
2022-09-10T21:36:01.336Z,16.84
2022-09-10T21:41:05.530Z,16.89
2022-09-10T21:46:13.566Z,16.86
2022-09-10T21:51:18.541Z,16.83
2022-09-10T21:56:22.053Z,16.80
2022-09-10T22:01:27.831Z,16.75
2022-09-10T22:06:32.178Z,16.72
2022-09-10T22:11:39.512Z,16.66
2022-09-10T22:16:44.128Z,16.55
2022-09-10T22:21:47.465Z,16.46
2022-09-10T22:26:50.861Z,16.44
2022-09-10T22:31:55.561Z,16.43
2022-09-10T22:36:58.522Z,16.40
2022-09-10T22:42:01.518Z,16.32
2022-09-10T22:47:06.396Z,16.24
2022-09-10T22:52:09.331Z,16.21
2022-09-10T22:57:12.369Z,16.18
2022-09-10T23:02:16.928Z,16.09
2022-09-10T23:07:19.884Z,16.01
2022-09-10T23:12:22.968Z,15.94
2022-09-10T23:17:27.468Z,15.93
2022-09-10T23:22:30.513Z,15.89
2022-09-10T23:27:33.411Z,15.84
2022-09-10T23:32:37.811Z,15.78
2022-09-10T23:37:42.078Z,15.77
2022-09-10T23:42:45.140Z,15.72
2022-09-10T23:47:49.392Z,15.64
2022-09-10T23:52:52.260Z,15.62
2022-09-10T23:57:55.512Z,15.55
